createdAt,value
2022-10-24T00:01:43.316Z,100674.47
2022-10-24T00:05:47.486Z,100678.06
2022-10-24T00:09:49.358Z,100675.59
2022-10-24T00:13:51.806Z,100669.31
2022-10-24T00:17:53.784Z,100685.78
2022-10-24T00:21:55.507Z,100685.28
2022-10-24T00:26:01.897Z,100681.47
2022-10-24T00:30:05.408Z,100688.34
2022-10-24T00:34:07.364Z,100700.78
2022-10-24T00:38:09.033Z,100698.75
2022-10-24T00:42:12.711Z,100701.13
2022-10-24T00:46:16.617Z,100705.84
2022-10-24T00:50:18.546Z,100696.03
2022-10-24T00:54:20.771Z,100689.50
2022-10-24T00:58:27.576Z,100681.41
2022-10-24T01:02:29.248Z,100674.53
2022-10-24T01:07:09.700Z,100664.03
2022-10-24T01:11:44.901Z,100656.16
2022-10-24T01:15:56.628Z,100655.13
2022-10-24T01:20:16.288Z,100657.19
2022-10-24T01:24:45.959Z,100649.06
2022-10-24T01:29:00.355Z,100642.44
2022-10-24T01:33:18.650Z,100641.19
2022-10-24T01:37:27.806Z,100632.56
2022-10-24T01:41:31.209Z,100632.81
2022-10-24T01:45:36.289Z,100627.41
2022-10-24T01:49:41.146Z,100630.78
2022-10-24T01:53:44.657Z,100635.19
2022-10-24T01:57:46.861Z,100634.06
2022-10-24T02:01:48.742Z,100631.03
2022-10-24T02:05:58.302Z,100630.03
2022-10-24T02:10:06.302Z,100619.19
2022-10-24T02:14:36.903Z,100601.22
2022-10-24T02:18:39.971Z,100591.31
2022-10-24T02:23:14.121Z,100584.13
2022-10-24T02:27:21.371Z,100583.88
2022-10-24T02:31:27.220Z,100587.06
2022-10-24T02:35:32.672Z,100585.03
2022-10-24T02:39:35.218Z,100582.09
2022-10-24T02:43:38.668Z,100588.59
2022-10-24T02:47:43.731Z,100589.09
2022-10-24T02:51:47.339Z,100596.97
2022-10-24T02:55:49.256Z,100600.66
2022-10-24T02:59:50.908Z,100595.19
2022-10-24T03:03:52.736Z,100585.31
2022-10-24T03:07:54.437Z,100576.66
2022-10-24T03:11:56.245Z,100577.75
2022-10-24T03:15:58.508Z,100563.78
2022-10-24T03:20:00.538Z,100565.22
2022-10-24T03:24:02.206Z,100576.59
2022-10-24T03:28:04.852Z,100567.34
2022-10-24T03:32:06.683Z,100562.34
2022-10-24T03:36:08.972Z,100556.09
2022-10-24T03:40:11.680Z,100563.19
2022-10-24T03:44:13.473Z,100565.75
2022-10-24T03:48:15.112Z,100558.91
2022-10-24T03:52:17.035Z,100561.00
2022-10-24T03:56:18.845Z,100552.47
2022-10-24T04:00:21.350Z,100538.06
2022-10-24T04:04:23.361Z,100533.16
2022-10-24T04:08:25.203Z,100535.72
2022-10-24T04:12:26.895Z,100538.34
2022-10-24T04:16:29.169Z,100521.63
2022-10-24T04:20:30.801Z,100519.19
2022-10-24T04:24:33.340Z,100508.50
2022-10-24T04:28:35.321Z,100495.63
2022-10-24T04:32:37.697Z,100491.09
2022-10-24T04:36:39.415Z,100497.44
2022-10-24T04:40:51.944Z,100485.75
2022-10-24T04:44:53.609Z,100470.31
2022-10-24T04:48:55.374Z,100461.53
2022-10-24T04:52:57.244Z,100449.09
2022-10-24T04:56:59.583Z,100452.47
2022-10-24T05:01:01.430Z,100452.38
2022-10-24T05:05:04.096Z,100448.31
2022-10-24T05:09:05.851Z,100441.91
2022-10-24T05:13:07.663Z,100428.25
2022-10-24T05:17:09.492Z,100429.13
2022-10-24T05:21:11.630Z,100425.09
2022-10-24T05:25:13.545Z,100430.78
2022-10-24T05:29:15.565Z,100424.63
2022-10-24T05:33:17.240Z,100418.91
2022-10-24T05:37:19.103Z,100404.56
2022-10-24T05:41:21.058Z,100398.41
2022-10-24T05:45:23.039Z,100410.59
2022-10-24T05:49:24.989Z,100421.06
2022-10-24T05:53:27.282Z,100446.09
2022-10-24T05:57:30.026Z,100437.53
2022-10-24T06:01:32.153Z,100435.16
2022-10-24T06:05:34.057Z,100420.28
2022-10-24T06:09:35.899Z,100424.97
2022-10-24T06:13:38.295Z,100433.03
2022-10-24T06:17:40.265Z,100444.00
2022-10-24T06:21:41.978Z,100466.91
2022-10-24T06:25:43.839Z,100454.44
2022-10-24T06:29:45.644Z,100456.88
2022-10-24T06:33:47.574Z,100459.59
2022-10-24T06:37:50.223Z,100450.78
2022-10-24T06:41:52.431Z,100445.81
2022-10-24T06:45:55.504Z,100436.41
2022-10-24T06:49:57.373Z,100437.25
2022-10-24T06:53:59.913Z,100426.75
2022-10-24T06:58:01.841Z,100437.16
2022-10-24T07:02:06.010Z,100462.88
2022-10-24T07:10:29.975Z,100488.59
2022-10-24T07:14:31.827Z,100481.63
2022-10-24T07:18:33.779Z,100484.31
2022-10-24T07:22:36.033Z,100485.88
2022-10-24T07:26:39.106Z,100487.22
2022-10-24T07:30:44.086Z,100497.63
2022-10-24T07:34:47.770Z,100496.41
2022-10-24T07:38:51.819Z,100472.75
2022-10-24T07:42:53.549Z,100460.72
2022-10-24T07:46:55.787Z,100448.50
2022-10-24T07:50:57.695Z,100436.00
2022-10-24T07:54:59.651Z,100418.69
2022-10-24T07:59:09.227Z,100401.91
2022-10-24T08:03:11.762Z,100429.66
2022-10-24T08:07:13.832Z,100434.59
2022-10-24T08:11:19.478Z,100433.94
2022-10-24T08:15:23.063Z,100425.22
2022-10-24T08:23:33.755Z,100407.13
2022-10-24T08:27:36.076Z,100401.09
2022-10-24T08:31:38.664Z,100402.78
2022-10-24T08:35:43.536Z,100391.28
2022-10-24T08:39:45.291Z,100375.47
2022-10-24T08:43:47.459Z,100389.47
2022-10-24T08:48:07.120Z,100378.31
2022-10-24T08:52:30.411Z,100378.72
2022-10-24T08:56:33.962Z,100381.88
2022-10-24T09:00:42.586Z,100396.75
2022-10-24T09:04:58.227Z,100395.06
2022-10-24T09:09:06.047Z,100386.56
2022-10-24T09:13:13.770Z,100377.59
2022-10-24T09:17:33.725Z,100365.22
2022-10-24T09:21:35.516Z,100373.38
2022-10-24T09:25:41.507Z,100347.78
2022-10-24T09:29:43.647Z,100345.91
2022-10-24T09:33:47.869Z,100343.94
2022-10-24T09:37:55.856Z,100340.88
2022-10-24T09:41:59.616Z,100328.41
2022-10-24T09:46:06.212Z,100334.41
2022-10-24T09:50:22.494Z,100320.06
2022-10-24T09:54:28.121Z,100314.53
2022-10-24T09:58:34.123Z,100306.88
2022-10-24T10:02:36.614Z,100319.06
2022-10-24T10:06:44.676Z,100315.84
2022-10-24T10:10:57.804Z,100309.38
2022-10-24T10:15:02.665Z,100319.31
2022-10-24T10:19:15.153Z,100309.59
2022-10-24T10:23:22.521Z,100313.59
2022-10-24T10:27:34.922Z,100310.97
2022-10-24T10:31:48.628Z,100304.84
2022-10-24T10:36:16.446Z,100309.06
2022-10-24T10:40:39.888Z,100299.56
2022-10-24T10:44:55.134Z,100301.84
2022-10-24T10:49:12.039Z,100304.22
2022-10-24T10:53:31.705Z,100305.22
2022-10-24T10:57:59.488Z,100315.06
2022-10-24T11:02:23.301Z,100301.69
2022-10-24T11:06:36.875Z,100308.75
2022-10-24T11:10:44.765Z,100308.75
2022-10-24T11:15:00.867Z,100302.84
2022-10-24T11:19:26.103Z,100309.16
2022-10-24T11:23:40.965Z,100312.09
2022-10-24T11:27:55.243Z,100306.13
2022-10-24T11:32:14.792Z,100305.88
2022-10-24T11:36:23.164Z,100304.72
2022-10-24T11:45:00.212Z,100301.66
2022-10-24T11:49:23.461Z,100295.38
2022-10-24T11:53:31.541Z,100300.03
2022-10-24T11:57:33.959Z,100293.03
2022-10-24T12:01:55.341Z,100304.22
2022-10-24T12:06:55.950Z,100289.19
2022-10-24T12:11:32.247Z,100300.78
2022-10-24T12:15:52.239Z,100312.38
2022-10-24T12:19:54.546Z,100315.25
2022-10-24T12:23:59.805Z,100312.63
2022-10-24T12:28:18.190Z,100316.38
2022-10-24T12:32:36.179Z,100310.78
2022-10-24T12:37:03.118Z,100310.78
2022-10-24T12:41:06.863Z,100308.41
2022-10-24T12:45:32.175Z,100287.16
2022-10-24T12:49:33.908Z,100291.63
2022-10-24T12:53:55.951Z,100300.31
2022-10-24T12:57:58.403Z,100282.56
2022-10-24T13:02:15.535Z,100279.75
2022-10-24T13:06:40.987Z,100265.66
2022-10-24T13:11:13.503Z,100274.44
2022-10-24T13:15:46.144Z,100285.78
2022-10-24T13:20:02.541Z,100284.50
2022-10-24T13:24:16.580Z,100292.91
2022-10-24T13:28:24.389Z,100305.19
2022-10-24T13:32:32.370Z,100295.28
2022-10-24T13:36:34.849Z,100306.03
2022-10-24T13:40:36.777Z,100306.59
2022-10-24T13:44:45.329Z,100306.31
2022-10-24T13:48:48.870Z,100298.63
2022-10-24T13:52:54.955Z,100289.13
2022-10-24T13:56:59.748Z,100288.03
2022-10-24T14:01:07.450Z,100296.53
2022-10-24T14:05:22.227Z,100291.38
2022-10-24T14:09:24.204Z,100270.28
2022-10-24T14:13:28.299Z,100260.16
2022-10-24T14:17:34.500Z,100257.63
2022-10-24T14:21:42.474Z,100251.91
2022-10-24T14:25:44.482Z,100250.09
2022-10-24T14:29:56.673Z,100249.06
2022-10-24T14:33:58.547Z,100237.03
2022-10-24T14:38:00.662Z,100217.44
2022-10-24T14:42:03.126Z,100208.03
2022-10-24T14:46:13.605Z,100219.09
2022-10-24T14:50:43.761Z,100224.47
2022-10-24T14:55:02.479Z,100225.44
2022-10-24T14:59:15.399Z,100223.44
2022-10-24T15:03:17.398Z,100222.69
2022-10-24T15:07:37.809Z,100231.88
2022-10-24T15:11:41.905Z,100241.88
2022-10-24T15:15:43.739Z,100243.72
2022-10-24T15:19:47.211Z,100236.41
2022-10-24T15:23:55.722Z,100244.34
2022-10-24T15:28:01.206Z,100251.16
2022-10-24T15:32:06.117Z,100255.94
2022-10-24T15:36:26.123Z,100262.78
2022-10-24T15:40:31.400Z,100255.91
2022-10-24T15:44:33.576Z,100267.72
2022-10-24T15:48:35.466Z,100279.06
2022-10-24T15:52:37.314Z,100286.63
2022-10-24T15:56:39.673Z,100280.81
2022-10-24T16:00:41.737Z,100295.75
2022-10-24T16:04:44.792Z,100300.09
2022-10-24T16:08:46.463Z,100292.84
2022-10-24T16:12:50.101Z,100297.34
2022-10-24T16:16:55.430Z,100290.75
2022-10-24T16:20:59.060Z,100289.03
2022-10-24T16:25:00.709Z,100287.88
2022-10-24T16:29:02.738Z,100291.94
2022-10-24T16:33:04.751Z,100301.59
2022-10-24T16:37:06.639Z,100293.59
2022-10-24T16:41:15.003Z,100305.50
2022-10-24T16:45:17.859Z,100301.84
2022-10-24T16:49:19.520Z,100307.81
2022-10-24T16:53:22.148Z,100306.09
2022-10-24T17:01:28.038Z,100302.28
2022-10-24T17:05:29.937Z,100313.13
2022-10-24T17:09:31.897Z,100306.84
2022-10-24T17:13:33.696Z,100308.28
2022-10-24T17:17:36.177Z,100308.25
2022-10-24T17:21:37.811Z,100329.91
2022-10-24T17:25:40.024Z,100333.56
2022-10-24T17:29:43.083Z,100322.13
2022-10-24T17:33:45.124Z,100311.81
2022-10-24T17:38:40.140Z,100306.47
2022-10-24T17:42:43.356Z,100315.69
2022-10-24T17:46:45.838Z,100316.31
2022-10-24T17:50:48.211Z,100301.06
2022-10-24T17:54:50.718Z,100308.63
2022-10-24T17:58:52.626Z,100303.34
2022-10-24T18:02:54.489Z,100294.78
2022-10-24T18:06:56.577Z,100297.31
2022-10-24T18:11:04.027Z,100298.88
2022-10-24T18:15:08.259Z,100324.06
2022-10-24T18:19:10.020Z,100315.69
2022-10-24T18:23:11.858Z,100310.84
2022-10-24T18:27:13.537Z,100313.00
2022-10-24T18:31:21.451Z,100311.63
2022-10-24T18:35:23.414Z,100310.06
2022-10-24T18:39:29.152Z,100316.19
2022-10-24T18:43:31.896Z,100320.94
2022-10-24T18:47:34.206Z,100320.13
2022-10-24T18:52:01.312Z,100311.72
2022-10-24T18:56:03.456Z,100296.03
2022-10-24T19:00:06.682Z,100294.59
2022-10-24T19:04:21.049Z,100291.63
2022-10-24T19:08:25.489Z,100281.53
2022-10-24T19:12:28.272Z,100278.69
2022-10-24T19:16:32.396Z,100280.66
2022-10-24T19:20:35.712Z,100279.72
2022-10-24T19:24:37.429Z,100273.94
2022-10-24T19:28:39.428Z,100273.50
2022-10-24T19:32:41.173Z,100274.72
2022-10-24T19:36:43.031Z,100273.03
2022-10-24T19:40:52.881Z,100261.56
2022-10-24T19:44:56.454Z,100267.97
2022-10-24T19:48:58.078Z,100267.97
2022-10-24T19:52:59.969Z,100270.50
2022-10-24T19:57:01.755Z,100272.09
2022-10-24T20:01:16.759Z,100269.91
2022-10-24T20:05:18.694Z,100283.94
2022-10-24T20:09:20.636Z,100292.28
2022-10-24T20:13:22.597Z,100299.16
2022-10-24T20:17:24.514Z,100301.88
2022-10-24T20:21:26.353Z,100303.91
2022-10-24T20:25:28.234Z,100301.16
2022-10-24T20:29:29.891Z,100307.19
2022-10-24T20:33:32.423Z,100298.53
2022-10-24T20:37:34.222Z,100301.91
2022-10-24T20:41:37.022Z,100302.44
2022-10-24T20:45:40.129Z,100301.56
2022-10-24T20:49:41.941Z,100307.91
2022-10-24T20:53:44.001Z,100308.13
2022-10-24T20:57:45.974Z,100299.03
2022-10-24T21:01:47.708Z,100295.25
2022-10-24T21:05:49.679Z,100285.16
2022-10-24T21:09:51.341Z,100292.38
2022-10-24T21:14:05.428Z,100295.03
2022-10-24T21:18:07.055Z,100290.22
2022-10-24T21:22:09.109Z,100286.09
2022-10-24T21:26:13.344Z,100288.50
2022-10-24T21:30:15.484Z,100294.97
2022-10-24T21:34:18.262Z,100305.44
2022-10-24T21:38:20.195Z,100297.91
2022-10-24T21:42:21.794Z,100309.06
2022-10-24T21:46:26.391Z,100321.69
2022-10-24T21:50:28.002Z,100313.22
2022-10-24T21:54:30.463Z,100318.16
2022-10-24T21:58:32.582Z,100316.16
2022-10-24T22:02:34.779Z,100329.88
2022-10-24T22:06:37.423Z,100330.47
2022-10-24T22:10:39.512Z,100326.25
2022-10-24T22:14:41.169Z,100330.47
2022-10-24T22:18:43.032Z,100334.06
2022-10-24T22:22:44.849Z,100337.94
2022-10-24T22:26:47.729Z,100329.22
2022-10-24T22:30:49.619Z,100324.44
2022-10-24T22:34:51.736Z,100320.34
2022-10-24T22:38:54.536Z,100328.56
2022-10-24T22:42:57.261Z,100341.22
2022-10-24T22:47:21.722Z,100346.38
2022-10-24T22:51:23.825Z,100351.25
2022-10-24T22:55:33.207Z,100354.50
2022-10-24T22:59:35.527Z,100356.50
2022-10-24T23:03:46.559Z,100341.44
2022-10-24T23:08:04.843Z,100336.91
2022-10-24T23:12:15.946Z,100347.13
2022-10-24T23:16:29.403Z,100342.06
2022-10-24T23:20:39.275Z,100361.03
2022-10-24T23:24:41.468Z,100355.03
2022-10-24T23:28:54.081Z,100346.81
2022-10-24T23:32:56.322Z,100347.97
2022-10-24T23:37:04.125Z,100355.56
2022-10-24T23:41:10.511Z,100347.25
2022-10-24T23:45:16.991Z,100351.66
2022-10-24T23:49:34.910Z,100356.19
2022-10-24T23:53:49.977Z,100349.66
2022-10-24T23:57:51.809Z,100355.16
